createdAt,value
2023-04-02T00:01:50.493Z,101402.09
2023-04-02T00:04:38.098Z,101409.47
2023-04-02T00:07:31.155Z,101416.53
2023-04-02T00:10:37.944Z,101413.34
2023-04-02T00:13:41.162Z,101424.88
2023-04-02T00:16:27.411Z,101418.44
2023-04-02T00:19:23.380Z,101422.38
2023-04-02T00:22:16.487Z,101435.50
2023-04-02T00:25:12.253Z,101434.59
2023-04-02T00:27:57.223Z,101445.94
2023-04-02T00:31:02.429Z,101453.13
2023-04-02T00:33:49.363Z,101429.31
2023-04-02T00:36:35.279Z,101451.84
2023-04-02T00:39:27.250Z,101447.72
2023-04-02T00:42:13.016Z,101468.34
2023-04-02T00:44:59.005Z,101467.50
2023-04-02T00:47:44.531Z,101476.25
2023-04-02T00:50:41.450Z,101466.72
2023-04-02T00:53:31.485Z,101455.88
2023-04-02T00:56:27.626Z,101468.75
2023-04-02T00:59:32.717Z,101479.91
2023-04-02T01:02:18.542Z,101483.56
2023-04-02T01:05:15.814Z,101487.91
2023-04-02T01:08:17.627Z,101483.56
2023-04-02T01:11:05.858Z,101496.53
2023-04-02T01:14:00.314Z,101493.88
2023-04-02T01:17:26.434Z,101498.34
2023-04-02T01:20:26.723Z,101485.31
2023-04-02T01:23:18.219Z,101498.34
2023-04-02T01:26:27.972Z,101502.06
2023-04-02T01:29:16.612Z,101508.25
2023-04-02T01:32:06.658Z,101510.19
2023-04-02T01:34:52.985Z,101522.38
2023-04-02T01:37:56.776Z,101523.34
2023-04-02T01:41:05.857Z,101517.28
2023-04-02T01:43:58.346Z,101519.28
2023-04-02T01:46:44.831Z,101526.22
2023-04-02T01:49:30.522Z,101539.97
2023-04-02T01:52:34.434Z,101539.25
2023-04-02T01:55:29.409Z,101545.38
2023-04-02T01:58:19.527Z,101556.53
2023-04-02T02:01:19.207Z,101561.75
2023-04-02T02:04:04.991Z,101559.19
2023-04-02T02:06:50.418Z,101557.38
2023-04-02T02:09:36.441Z,101561.47
2023-04-02T02:12:22.145Z,101564.00
2023-04-02T02:15:16.011Z,101563.94
2023-04-02T02:18:05.371Z,101561.88
2023-04-02T02:20:52.194Z,101570.66
2023-04-02T02:23:37.445Z,101550.41
2023-04-02T02:26:27.216Z,101575.09
2023-04-02T02:29:15.403Z,101577.25
2023-04-02T02:32:02.830Z,101579.13
2023-04-02T02:35:12.759Z,101578.47
2023-04-02T02:38:06.285Z,101587.22
2023-04-02T02:40:56.903Z,101577.72
2023-04-02T02:43:49.146Z,101588.78
2023-04-02T02:46:37.757Z,101581.28
2023-04-02T02:49:29.560Z,101592.16
2023-04-02T02:52:18.791Z,101590.53
2023-04-02T02:55:08.826Z,101608.47
2023-04-02T02:58:01.696Z,101604.31
2023-04-02T03:00:47.878Z,101618.06
2023-04-02T03:03:34.506Z,101608.78
2023-04-02T03:06:20.762Z,101633.13
2023-04-02T03:10:06.787Z,101639.09
2023-04-02T03:13:00.762Z,101638.50
2023-04-02T03:16:06.742Z,101636.25
2023-04-02T03:19:34.779Z,101651.66
2023-04-02T03:22:32.220Z,101646.69
2023-04-02T03:25:17.244Z,101657.97
2023-04-02T03:28:07.596Z,101659.91
2023-04-02T03:31:16.711Z,101668.72
2023-04-02T03:34:11.805Z,101645.56
2023-04-02T03:36:59.057Z,101668.88
2023-04-02T03:40:10.102Z,101670.47
2023-04-02T03:43:24.984Z,101681.91
2023-04-02T03:46:18.448Z,101684.38
2023-04-02T03:49:09.852Z,101692.88
2023-04-02T03:52:00.789Z,101688.81
2023-04-02T03:54:54.131Z,101681.06
2023-04-02T03:57:46.810Z,101693.19
2023-04-02T04:00:53.857Z,101700.94
2023-04-02T04:03:46.648Z,101705.38
2023-04-02T04:06:36.759Z,101708.91
2023-04-02T04:09:21.927Z,101723.50
2023-04-02T04:12:24.302Z,101713.19
2023-04-02T04:15:41.781Z,101720.09
2023-04-02T04:18:34.973Z,101720.09
2023-04-02T04:21:37.573Z,101720.56
2023-04-02T04:24:25.250Z,101731.84
2023-04-02T04:27:20.518Z,101731.72
2023-04-02T04:30:27.249Z,101743.78
2023-04-02T04:33:26.040Z,101731.00
2023-04-02T04:36:32.069Z,101746.56
2023-04-02T04:39:23.963Z,101732.25
2023-04-02T04:42:18.047Z,101756.94
2023-04-02T04:45:17.016Z,101761.19
2023-04-02T04:48:15.307Z,101766.56
2023-04-02T04:51:04.084Z,101771.84
2023-04-02T04:53:52.722Z,101778.00
2023-04-02T04:56:37.997Z,101762.59
2023-04-02T04:59:42.821Z,101779.13
2023-04-02T05:02:33.978Z,101780.91
2023-04-02T05:05:29.743Z,101802.63
2023-04-02T05:08:21.014Z,101814.69
2023-04-02T05:11:13.293Z,101819.06
2023-04-02T05:14:06.854Z,101810.44
2023-04-02T05:17:07.549Z,101814.22
2023-04-02T05:20:07.888Z,101831.13
2023-04-02T05:23:18.320Z,101836.41
2023-04-02T05:26:11.404Z,101830.66
2023-04-02T05:29:14.546Z,101849.69
2023-04-02T05:32:08.832Z,101843.81
2023-04-02T05:34:56.985Z,101853.19
2023-04-02T05:37:42.537Z,101871.75
2023-04-02T05:40:33.466Z,101883.13
2023-04-02T05:43:23.269Z,101885.88
2023-04-02T05:46:15.305Z,101893.81
2023-04-02T05:49:00.439Z,101896.56
2023-04-02T05:51:50.728Z,101894.13
2023-04-02T05:54:47.713Z,101894.03
2023-04-02T05:57:43.870Z,101894.78
2023-04-02T06:00:37.770Z,101912.94
2023-04-02T06:03:32.339Z,101916.44
2023-04-02T06:06:27.154Z,101918.22
2023-04-02T06:09:23.876Z,101919.47
2023-04-02T06:12:18.201Z,101926.22
2023-04-02T06:15:06.522Z,101929.69
2023-04-02T06:18:21.330Z,101920.31
2023-04-02T06:21:06.664Z,101926.41
2023-04-02T06:24:04.458Z,101945.41
2023-04-02T06:26:58.583Z,101941.28
2023-04-02T06:29:45.591Z,101924.31
2023-04-02T06:32:31.278Z,101953.41
2023-04-02T06:35:17.020Z,101957.91
2023-04-02T06:38:05.790Z,101969.09
2023-04-02T06:41:00.889Z,101981.16
2023-04-02T06:43:51.312Z,101976.06
2023-04-02T06:46:43.340Z,101986.44
2023-04-02T06:49:51.303Z,101996.91
2023-04-02T06:52:44.353Z,102003.75
2023-04-02T06:55:50.594Z,101993.47
2023-04-02T06:58:35.876Z,101997.03
2023-04-02T07:01:25.725Z,102010.75
2023-04-02T07:04:11.785Z,102007.28
2023-04-02T07:06:57.092Z,102019.28
2023-04-02T07:09:42.430Z,102024.31
2023-04-02T07:12:27.683Z,102027.81
2023-04-02T07:15:16.954Z,102027.16
2023-04-02T07:18:02.717Z,102037.41
2023-04-02T07:20:48.184Z,102023.72
2023-04-02T07:23:33.438Z,102028.81
2023-04-02T07:26:23.241Z,102039.16
2023-04-02T07:29:14.097Z,102046.03
2023-04-02T07:31:59.039Z,102039.13
2023-04-02T07:34:43.936Z,102048.53
2023-04-02T07:37:29.406Z,102069.47
2023-04-02T07:40:21.962Z,102056.53
2023-04-02T07:43:07.430Z,102068.44
2023-04-02T07:45:52.246Z,102066.13
2023-04-02T07:48:37.338Z,102064.22
2023-04-02T07:51:25.020Z,102075.47
2023-04-02T07:54:11.136Z,102081.50
2023-04-02T07:56:56.660Z,102082.56
2023-04-02T07:59:41.570Z,102082.47
2023-04-02T08:02:26.681Z,102087.66
2023-04-02T08:05:12.051Z,102072.31
2023-04-02T08:07:57.212Z,102098.72
2023-04-02T08:10:42.293Z,102098.63
2023-04-02T08:13:27.239Z,102096.84
2023-04-02T08:16:12.478Z,102094.31
2023-04-02T08:18:57.452Z,102115.88
2023-04-02T08:21:43.001Z,102099.41
2023-04-02T08:24:27.993Z,102113.00
2023-04-02T08:27:14.996Z,102121.63
2023-04-02T08:30:00.779Z,102119.97
2023-04-02T08:32:45.896Z,102139.00
2023-04-02T08:35:30.756Z,102119.41
2023-04-02T08:38:17.615Z,102136.63
2023-04-02T08:41:04.787Z,102137.38
2023-04-02T08:44:07.055Z,102145.78
2023-04-02T08:47:07.387Z,102149.09
2023-04-02T08:50:00.963Z,102155.13
2023-04-02T08:52:46.624Z,102150.66
2023-04-02T08:56:09.914Z,102163.25
2023-04-02T08:58:57.841Z,102158.72
2023-04-02T09:02:00.196Z,102169.66
2023-04-02T09:04:45.443Z,102173.50
2023-04-02T09:07:33.003Z,102176.69
2023-04-02T09:10:19.180Z,102180.31
2023-04-02T09:13:13.984Z,102177.50
2023-04-02T09:16:07.860Z,102188.78
2023-04-02T09:18:54.013Z,102185.97
2023-04-02T09:21:46.924Z,102180.94
2023-04-02T09:24:32.124Z,102189.47
2023-04-02T09:27:22.971Z,102194.34
2023-04-02T09:30:26.789Z,102194.03
2023-04-02T09:33:12.937Z,102209.50
2023-04-02T09:35:58.302Z,102216.97
2023-04-02T09:38:58.096Z,102218.28
2023-04-02T09:41:43.815Z,102221.56
2023-04-02T09:44:31.840Z,102215.97
2023-04-02T09:47:25.712Z,102226.53
2023-04-02T09:50:32.464Z,102221.50
2023-04-02T09:53:31.245Z,102228.94
2023-04-02T09:56:25.620Z,102230.44
2023-04-02T09:59:13.605Z,102239.66
2023-04-02T10:02:03.665Z,102242.78
2023-04-02T10:04:50.002Z,102248.78
2023-04-02T10:07:44.551Z,102249.31
2023-04-02T10:10:36.380Z,102245.69
2023-04-02T10:13:33.860Z,102263.25
2023-04-02T10:16:33.523Z,102263.19
2023-04-02T10:19:41.866Z,102264.59
2023-04-02T10:22:30.077Z,102252.50
2023-04-02T10:25:16.951Z,102280.09
2023-04-02T10:28:55.640Z,102276.81
2023-04-02T10:32:04.478Z,102288.41
2023-04-02T10:34:55.738Z,102290.97
2023-04-02T10:37:47.117Z,102291.31
2023-04-02T10:40:39.879Z,102294.09
2023-04-02T10:43:30.899Z,102294.78
2023-04-02T10:46:53.621Z,102292.53
2023-04-02T10:49:50.763Z,102301.63
2023-04-02T10:52:44.184Z,102301.31
2023-04-02T10:55:35.671Z,102297.22
2023-04-02T10:58:26.927Z,102307.69
2023-04-02T11:01:18.062Z,102311.34
2023-04-02T11:04:08.610Z,102313.06
2023-04-02T11:07:13.245Z,102288.94
2023-04-02T11:10:00.851Z,102310.28
2023-04-02T11:12:52.358Z,102314.38
2023-04-02T11:15:38.251Z,102314.50
2023-04-02T11:18:27.672Z,102319.53
2023-04-02T11:21:24.917Z,102302.94
2023-04-02T11:24:34.352Z,102321.72
2023-04-02T11:27:39.614Z,102318.59
2023-04-02T11:30:27.095Z,102321.06
2023-04-02T11:33:44.618Z,102313.28
2023-04-02T11:36:50.076Z,102319.06
2023-04-02T11:39:55.010Z,102307.84
2023-04-02T11:42:45.666Z,102309.06
2023-04-02T11:45:31.170Z,102313.31
2023-04-02T11:48:17.507Z,102320.63
2023-04-02T11:51:21.308Z,102309.59
2023-04-02T11:54:24.024Z,102319.22
2023-04-02T11:57:30.703Z,102323.16
2023-04-02T12:00:47.369Z,102327.28
2023-04-02T12:04:03.167Z,102331.13
2023-04-02T12:07:10.785Z,102326.19
2023-04-02T12:10:03.107Z,102321.34
2023-04-02T12:12:49.290Z,102327.97
2023-04-02T12:15:45.193Z,102336.78
2023-04-02T12:18:30.494Z,102334.72
2023-04-02T12:21:21.219Z,102345.19
2023-04-02T12:24:14.402Z,102344.88
2023-04-02T12:27:15.289Z,102343.34
2023-04-02T12:30:18.698Z,102330.72
2023-04-02T12:33:17.192Z,102350.94
2023-04-02T12:36:09.923Z,102365.56
2023-04-02T12:38:58.532Z,102368.13
2023-04-02T12:41:43.675Z,102370.47
2023-04-02T12:44:31.059Z,102378.44
2023-04-02T12:47:16.118Z,102364.34
2023-04-02T12:50:02.167Z,102376.03
2023-04-02T12:52:50.911Z,102368.88
2023-04-02T12:55:36.666Z,102375.47
2023-04-02T12:58:36.797Z,102372.56
2023-04-02T13:01:31.813Z,102376.75
2023-04-02T13:04:17.906Z,102376.56
2023-04-02T13:07:03.004Z,102368.53
2023-04-02T13:09:50.994Z,102365.84
2023-04-02T13:12:40.712Z,102372.63
2023-04-02T13:15:32.545Z,102373.22
2023-04-02T13:18:23.132Z,102389.34
2023-04-02T13:21:14.467Z,102378.81
2023-04-02T13:23:59.506Z,102379.09
2023-04-02T13:26:44.518Z,102378.31
2023-04-02T13:29:34.854Z,102382.38
2023-04-02T13:32:19.995Z,102381.63
2023-04-02T13:35:05.403Z,102382.13
2023-04-02T13:37:50.810Z,102383.75
2023-04-02T13:40:37.560Z,102386.13
2023-04-02T13:43:23.158Z,102377.88
2023-04-02T13:46:08.590Z,102367.25
2023-04-02T13:48:55.574Z,102387.00
2023-04-02T13:51:47.630Z,102384.03
2023-04-02T13:54:53.053Z,102392.22
2023-04-02T13:57:38.189Z,102405.59
2023-04-02T14:00:24.009Z,102397.00
2023-04-02T14:03:22.042Z,102404.13
2023-04-02T14:06:15.241Z,102409.91
2023-04-02T14:09:06.603Z,102419.63
2023-04-02T14:12:25.022Z,102407.88
2023-04-02T14:15:27.903Z,102411.13
2023-04-02T14:18:29.947Z,102411.56
2023-04-02T14:21:31.341Z,102409.00
2023-04-02T14:24:20.792Z,102407.88
2023-04-02T14:27:44.743Z,102414.09
2023-04-02T14:30:51.654Z,102408.88
2023-04-02T14:34:06.711Z,102411.53
2023-04-02T14:36:57.719Z,102404.34
2023-04-02T14:40:01.508Z,102408.66
2023-04-02T14:43:03.641Z,102407.97
2023-04-02T14:46:03.227Z,102420.69
2023-04-02T14:48:54.468Z,102417.94
2023-04-02T14:51:43.876Z,102421.97
2023-04-02T14:54:37.737Z,102425.34
2023-04-02T14:57:37.781Z,102423.59
2023-04-02T15:00:32.947Z,102428.25
2023-04-02T15:03:24.333Z,102415.00
2023-04-02T15:06:20.392Z,102424.63
2023-04-02T15:09:20.676Z,102427.47
2023-04-02T15:12:28.950Z,102420.00
2023-04-02T15:15:40.954Z,102426.53
2023-04-02T15:18:26.853Z,102418.16
2023-04-02T15:21:29.238Z,102428.59
2023-04-02T15:24:30.434Z,102424.09
2023-04-02T15:27:31.559Z,102429.84
2023-04-02T15:30:44.136Z,102440.59
2023-04-02T15:33:43.862Z,102434.84
2023-04-02T15:36:35.368Z,102435.41
2023-04-02T15:39:35.015Z,102439.44
2023-04-02T15:42:22.635Z,102433.47
2023-04-02T15:45:10.971Z,102431.97
2023-04-02T15:48:11.342Z,102419.50
2023-04-02T15:51:49.978Z,102438.00
2023-04-02T15:54:49.638Z,102434.81
2023-04-02T15:57:41.079Z,102439.22
2023-04-02T16:00:42.664Z,102435.31
2023-04-02T16:03:46.238Z,102441.00
2023-04-02T16:06:55.133Z,102426.06
2023-04-02T16:10:11.591Z,102441.19
2023-04-02T16:12:56.924Z,102441.09
2023-04-02T16:15:53.587Z,102442.25
2023-04-02T16:18:53.485Z,102444.31
2023-04-02T16:21:49.055Z,102435.72
2023-04-02T16:24:34.386Z,102451.75
2023-04-02T16:27:43.194Z,102440.44
2023-04-02T16:30:54.302Z,102437.47
2023-04-02T16:33:53.931Z,102436.81
2023-04-02T16:36:39.666Z,102455.97
2023-04-02T16:39:36.777Z,102457.72
2023-04-02T16:42:31.214Z,102459.50
2023-04-02T16:45:30.958Z,102463.53
2023-04-02T16:48:34.703Z,102472.16
2023-04-02T16:51:34.088Z,102471.75
2023-04-02T16:54:28.302Z,102492.88
2023-04-02T16:57:54.881Z,102496.28
2023-04-02T17:01:12.838Z,102504.31
2023-04-02T17:04:16.343Z,102506.16
2023-04-02T17:07:12.892Z,102497.88
2023-04-02T17:10:30.568Z,102493.34
2023-04-02T17:13:44.253Z,102497.66
2023-04-02T17:16:51.083Z,102506.53
2023-04-02T17:19:36.379Z,102507.63
2023-04-02T17:22:22.894Z,102522.53
2023-04-02T17:25:17.900Z,102527.47
2023-04-02T17:28:09.057Z,102535.59
2023-04-02T17:30:59.838Z,102539.31
2023-04-02T17:33:44.962Z,102543.03
2023-04-02T17:36:44.357Z,102560.66
2023-04-02T17:39:41.867Z,102567.88
2023-04-02T17:42:50.372Z,102577.88
2023-04-02T17:45:50.294Z,102565.34
2023-04-02T17:48:41.207Z,102573.28
2023-04-02T17:51:44.755Z,102574.28
2023-04-02T17:54:50.340Z,102572.88
2023-04-02T17:57:41.575Z,102587.19
2023-04-02T18:01:03.407Z,102581.47
2023-04-02T18:03:53.874Z,102597.22
2023-04-02T18:06:57.975Z,102609.78
2023-04-02T18:09:50.273Z,102612.97
2023-04-02T18:12:51.137Z,102611.47
2023-04-02T18:15:59.997Z,102619.50
2023-04-02T18:19:05.918Z,102628.38
2023-04-02T18:22:01.550Z,102614.72
2023-04-02T18:24:49.630Z,102615.91
2023-04-02T18:28:24.179Z,102632.41
2023-04-02T18:31:14.945Z,102627.25
2023-04-02T18:34:09.853Z,102632.66
2023-04-02T18:37:23.251Z,102638.88
2023-04-02T18:40:22.130Z,102634.78
2023-04-02T18:43:26.362Z,102621.91
2023-04-02T18:46:30.985Z,102641.06
2023-04-02T18:49:19.434Z,102643.94
2023-04-02T18:52:12.619Z,102646.72
2023-04-02T18:55:15.224Z,102639.06
2023-04-02T18:58:05.340Z,102635.53
2023-04-02T19:00:51.204Z,102641.75
2023-04-02T19:03:53.127Z,102647.13
2023-04-02T19:06:44.138Z,102654.25
2023-04-02T19:09:36.506Z,102665.53
2023-04-02T19:12:23.624Z,102645.91
2023-04-02T19:15:20.288Z,102664.06
2023-04-02T19:18:25.797Z,102671.03
2023-04-02T19:21:23.127Z,102682.34
2023-04-02T19:24:31.540Z,102690.28
2023-04-02T19:27:29.131Z,102687.72
2023-04-02T19:31:00.345Z,102692.16
2023-04-02T19:34:08.606Z,102683.47
2023-04-02T19:37:02.003Z,102691.34
2023-04-02T19:40:03.253Z,102703.66
2023-04-02T19:42:51.227Z,102699.31
2023-04-02T19:45:39.716Z,102694.13
2023-04-02T19:48:30.723Z,102702.84
2023-04-02T19:51:16.182Z,102702.19
2023-04-02T19:54:01.495Z,102704.03
2023-04-02T19:56:46.768Z,102699.75
2023-04-02T19:59:32.374Z,102711.00
2023-04-02T20:02:17.414Z,102705.94
2023-04-02T20:05:02.719Z,102719.75
2023-04-02T20:07:48.014Z,102722.41
2023-04-02T20:10:33.022Z,102726.69
2023-04-02T20:13:18.228Z,102738.00
2023-04-02T20:16:05.724Z,102738.25
2023-04-02T20:18:50.947Z,102735.69
2023-04-02T20:21:38.521Z,102741.81
2023-04-02T20:24:24.017Z,102740.97
2023-04-02T20:27:09.314Z,102736.72
2023-04-02T20:29:54.662Z,102736.78
2023-04-02T20:32:40.562Z,102729.94
2023-04-02T20:35:26.608Z,102739.34
2023-04-02T20:38:11.780Z,102749.00
2023-04-02T20:40:57.421Z,102742.09
2023-04-02T20:43:42.757Z,102751.66
2023-04-02T20:46:27.942Z,102751.78
2023-04-02T20:49:12.788Z,102758.81
2023-04-02T20:51:57.740Z,102756.22
2023-04-02T20:54:43.113Z,102761.41
2023-04-02T20:57:31.500Z,102757.13
2023-04-02T21:00:18.548Z,102762.38
2023-04-02T21:03:04.201Z,102751.97
2023-04-02T21:05:49.315Z,102761.53
2023-04-02T21:08:35.182Z,102752.94
2023-04-02T21:11:22.382Z,102757.28
2023-04-02T21:14:07.868Z,102762.44
2023-04-02T21:16:52.993Z,102766.72
2023-04-02T21:19:38.450Z,102756.31
2023-04-02T21:22:23.990Z,102753.88
2023-04-02T21:25:09.782Z,102766.81
2023-04-02T21:27:54.821Z,102763.47
2023-04-02T21:30:39.994Z,102749.78
2023-04-02T21:33:24.874Z,102767.78
2023-04-02T21:36:13.204Z,102768.72
2023-04-02T21:39:01.407Z,102759.28
2023-04-02T21:41:50.119Z,102764.41
2023-04-02T21:44:35.272Z,102770.44
2023-04-02T21:47:20.515Z,102768.69
2023-04-02T21:50:06.109Z,102762.63
2023-04-02T21:52:51.076Z,102771.25
2023-04-02T21:55:36.348Z,102774.72
2023-04-02T21:58:21.244Z,102775.59
2023-04-02T22:01:09.092Z,102773.81
2023-04-02T22:04:01.739Z,102772.16
2023-04-02T22:06:47.799Z,102773.88
2023-04-02T22:09:33.042Z,102775.63
2023-04-02T22:12:18.166Z,102775.56
2023-04-02T22:15:03.393Z,102773.81
2023-04-02T22:17:48.745Z,102766.16
2023-04-02T22:20:34.208Z,102775.63
2023-04-02T22:23:20.174Z,102776.53
2023-04-02T22:26:07.127Z,102777.31
2023-04-02T22:28:52.767Z,102756.66
2023-04-02T22:31:38.336Z,102776.38
2023-04-02T22:34:23.569Z,102774.63
2023-04-02T22:37:08.958Z,102781.53
2023-04-02T22:39:54.183Z,102770.22
2023-04-02T22:42:39.317Z,102772.81
2023-04-02T22:45:24.572Z,102771.03
2023-04-02T22:48:09.432Z,102765.03
2023-04-02T22:50:54.514Z,102775.38
2023-04-02T22:53:40.739Z,102771.03
2023-04-02T22:56:29.679Z,102770.97
2023-04-02T22:59:14.916Z,102768.41
2023-04-02T23:01:59.980Z,102771.03
2023-04-02T23:04:45.275Z,102767.56
2023-04-02T23:07:31.279Z,102760.56
2023-04-02T23:10:16.641Z,102764.88
2023-04-02T23:13:01.794Z,102764.91
2023-04-02T23:15:46.641Z,102764.03
2023-04-02T23:18:33.019Z,102753.63
2023-04-02T23:21:19.715Z,102767.47
2023-04-02T23:24:04.764Z,102760.56
2023-04-02T23:26:49.997Z,102753.78
2023-04-02T23:29:35.258Z,102760.78
2023-04-02T23:32:20.916Z,102767.78
2023-04-02T23:35:06.605Z,102762.59
2023-04-02T23:37:51.497Z,102748.88
2023-04-02T23:40:37.055Z,102760.13
2023-04-02T23:43:22.653Z,102760.16
2023-04-02T23:46:07.926Z,102751.63
2023-04-02T23:48:53.797Z,102759.38
2023-04-02T23:51:39.259Z,102758.53
2023-04-02T23:54:24.535Z,102761.16
2023-04-02T23:57:09.870Z,102756.88
2023-04-02T23:59:55.516Z,102762.09
